sensor_id;sensor_type;location;lat;lon;timestamp;temperature;humidity
14521;DHT22;7347;50.844;4.490;2022-12-20T08:46:36;10.70;99.90
14521;DHT22;7347;50.844;4.490;2022-12-20T08:49:03;10.70;99.90
14521;DHT22;7347;50.844;4.490;2022-12-20T08:51:30;10.70;99.90
14521;DHT22;7347;50.844;4.490;2022-12-20T08:53:57;10.70;99.90
14521;DHT22;7347;50.844;4.490;2022-12-20T08:56:24;10.80;99.90
14521;DHT22;7347;50.844;4.490;2022-12-20T08:58:51;10.80;99.90
14521;DHT22;7347;50.844;4.490;2022-12-20T09:01:19;10.80;99.90
14521;DHT22;7347;50.844;4.490;2022-12-20T09:03:48;10.80;99.90
14521;DHT22;7347;50.844;4.490;2022-12-20T09:06:17;10.90;99.90
14521;DHT22;7347;50.844;4.490;2022-12-20T09:08:45;11.00;99.90
14521;DHT22;7347;50.844;4.490;2022-12-20T09:11:14;11.00;99.90
14521;DHT22;7347;50.844;4.490;2022-12-20T09:13:43;11.10;99.90
14521;DHT22;7347;50.844;4.490;2022-12-20T09:16:11;11.10;99.90
14521;DHT22;7347;50.844;4.490;2022-12-20T09:18:39;11.10;99.90
14521;DHT22;7347;50.844;4.490;2022-12-20T09:21:07;11.20;99.90
14521;DHT22;7347;50.844;4.490;2022-12-20T09:23:36;11.20;99.90
14521;DHT22;7347;50.844;4.490;2022-12-20T09:26:04;11.30;99.90
14521;DHT22;7347;50.844;4.490;2022-12-20T09:28:32;11.30;99.90
14521;DHT22;7347;50.844;4.490;2022-12-20T09:30:59;11.40;99.90
14521;DHT22;7347;50.844;4.490;2022-12-20T09:33:27;11.50;99.90
14521;DHT22;7347;50.844;4.490;2022-12-20T09:35:55;11.60;99.90
14521;DHT22;7347;50.844;4.490;2022-12-20T09:38:23;11.50;99.90
14521;DHT22;7347;50.844;4.490;2022-12-20T09:40:53;11.50;99.90
14521;DHT22;7347;50.844;4.490;2022-12-20T18:15:04;10.70;99.90
14521;DHT22;7347;50.844;4.490;2022-12-20T18:17:33;10.60;99.90
14521;DHT22;7347;50.844;4.490;2022-12-20T18:20:00;10.70;99.90
14521;DHT22;7347;50.844;4.490;2022-12-20T18:22:27;10.70;99.90
14521;DHT22;7347;50.844;4.490;2022-12-20T18:24:54;10.70;99.90
14521;DHT22;7347;50.844;4.490;2022-12-20T18:27:20;10.70;99.90
14521;DHT22;7347;50.844;4.490;2022-12-20T18:29:47;10.70;99.90
14521;DHT22;7347;50.844;4.490;2022-12-20T18:32:15;10.70;99.90
14521;DHT22;7347;50.844;4.490;2022-12-20T18:34:42;10.70;99.90
14521;DHT22;7347;50.844;4.490;2022-12-20T18:37:09;10.70;99.90
14521;DHT22;7347;50.844;4.490;2022-12-20T18:39:36;10.70;99.90
14521;DHT22;7347;50.844;4.490;2022-12-20T18:42:03;10.70;99.90
14521;DHT22;7347;50.844;4.490;2022-12-20T18:44:29;10.80;99.90
14521;DHT22;7347;50.844;4.490;2022-12-20T18:47:00;10.70;99.90
14521;DHT22;7347;50.844;4.490;2022-12-20T18:49:29;10.70;99.90
14521;DHT22;7347;50.844;4.490;2022-12-20T18:51:57;10.70;99.90
14521;DHT22;7347;50.844;4.490;2022-12-20T18:54:25;10.70;99.90
14521;DHT22;7347;50.844;4.490;2022-12-20T18:56:51;10.70;99.90
14521;DHT22;7347;50.844;4.490;2022-12-20T18:59:18;10.80;99.90
14521;DHT22;7347;50.844;4.490;2022-12-20T19:01:46;10.80;99.90
14521;DHT22;7347;50.844;4.490;2022-12-20T19:04:12;10.80;99.90
14521;DHT22;7347;50.844;4.490;2022-12-20T19:06:41;10.80;99.90
14521;DHT22;7347;50.844;4.490;2022-12-20T19:09:09;10.80;99.90
14521;DHT22;7347;50.844;4.490;2022-12-20T19:11:38;10.80;99.90
14521;DHT22;7347;50.844;4.490;2022-12-20T19:14:05;10.80;99.90
14521;DHT22;7347;50.844;4.490;2022-12-20T19:16:33;10.80;99.90
14521;DHT22;7347;50.844;4.490;2022-12-20T19:19:01;10.80;99.90
14521;DHT22;7347;50.844;4.490;2022-12-20T19:21:29;10.80;99.90
14521;DHT22;7347;50.844;4.490;2022-12-20T19:23:59;10.70;99.90
14521;DHT22;7347;50.844;4.490;2022-12-20T19:26:28;10.70;99.90
14521;DHT22;7347;50.844;4.490;2022-12-20T19:28:55;10.80;99.90
14521;DHT22;7347;50.844;4.490;2022-12-20T19:31:23;10.80;99.90
14521;DHT22;7347;50.844;4.490;2022-12-20T19:33:52;10.80;99.90
14521;DHT22;7347;50.844;4.490;2022-12-20T19:36:22;10.90;99.90
14521;DHT22;7347;50.844;4.490;2022-12-20T19:38:50;10.90;99.90
14521;DHT22;7347;50.844;4.490;2022-12-20T19:41:19;10.80;99.90
14521;DHT22;7347;50.844;4.490;2022-12-20T19:43:48;10.80;99.90
14521;DHT22;7347;50.844;4.490;2022-12-20T19:46:16;10.80;99.90
14521;DHT22;7347;50.844;4.490;2022-12-20T19:48:42;10.80;99.90
14521;DHT22;7347;50.844;4.490;2022-12-20T19:51:11;10.80;99.90
14521;DHT22;7347;50.844;4.490;2022-12-20T19:53:39;10.80;99.90
14521;DHT22;7347;50.844;4.490;2022-12-20T19:56:07;10.80;99.90
14521;DHT22;7347;50.844;4.490;2022-12-20T19:58:36;10.70;99.90
14521;DHT22;7347;50.844;4.490;2022-12-20T20:01:04;10.70;99.90
14521;DHT22;7347;50.844;4.490;2022-12-20T20:03:31;10.80;99.90
14521;DHT22;7347;50.844;4.490;2022-12-20T20:05:58;10.80;99.90
14521;DHT22;7347;50.844;4.490;2022-12-20T20:08:25;10.70;99.90
14521;DHT22;7347;50.844;4.490;2022-12-20T20:10:52;10.70;99.90
14521;DHT22;7347;50.844;4.490;2022-12-20T20:13:20;10.70;99.90
14521;DHT22;7347;50.844;4.490;2022-12-20T20:15:50;10.70;99.90
14521;DHT22;7347;50.844;4.490;2022-12-20T20:18:17;10.80;99.90
14521;DHT22;7347;50.844;4.490;2022-12-20T20:20:44;10.80;99.90
14521;DHT22;7347;50.844;4.490;2022-12-20T20:23:11;10.80;99.90
14521;DHT22;7347;50.844;4.490;2022-12-20T20:25:43;10.80;99.90
14521;DHT22;7347;50.844;4.490;2022-12-20T20:28:10;10.70;99.90
14521;DHT22;7347;50.844;4.490;2022-12-20T20:30:38;10.70;99.90
14521;DHT22;7347;50.844;4.490;2022-12-20T20:33:07;10.70;99.90
14521;DHT22;7347;50.844;4.490;2022-12-20T20:35:34;10.70;99.90
14521;DHT22;7347;50.844;4.490;2022-12-20T20:38:01;10.80;99.90
14521;DHT22;7347;50.844;4.490;2022-12-20T20:40:28;10.80;99.90
14521;DHT22;7347;50.844;4.490;2022-12-20T20:42:54;10.90;99.90
14521;DHT22;7347;50.844;4.490;2022-12-20T20:45:21;10.90;99.90
14521;DHT22;7347;50.844;4.490;2022-12-20T20:47:48;10.90;99.90
14521;DHT22;7347;50.844;4.490;2022-12-20T20:50:16;10.80;99.90
14521;DHT22;7347;50.844;4.490;2022-12-20T20:52:43;10.80;99.90
14521;DHT22;7347;50.844;4.490;2022-12-20T20:55:10;10.90;99.90
14521;DHT22;7347;50.844;4.490;2022-12-20T20:57:37;10.90;99.90
14521;DHT22;7347;50.844;4.490;2022-12-20T21:00:05;10.90;99.90
14521;DHT22;7347;50.844;4.490;2022-12-20T21:02:32;11.00;99.90
14521;DHT22;7347;50.844;4.490;2022-12-20T21:04:59;11.00;99.90
14521;DHT22;7347;50.844;4.490;2022-12-20T21:07:27;11.00;99.90
14521;DHT22;7347;50.844;4.490;2022-12-20T21:09:54;11.00;99.90
14521;DHT22;7347;50.844;4.490;2022-12-20T21:12:21;11.00;99.90
14521;DHT22;7347;50.844;4.490;2022-12-20T21:14:48;11.10;99.90
14521;DHT22;7347;50.844;4.490;2022-12-20T21:17:15;11.20;99.90
14521;DHT22;7347;50.844;4.490;2022-12-20T21:19:42;11.00;99.90
14521;DHT22;7347;50.844;4.490;2022-12-20T21:22:10;11.00;99.90
14521;DHT22;7347;50.844;4.490;2022-12-20T21:24:38;11.10;99.90
14521;DHT22;7347;50.844;4.490;2022-12-20T21:27:05;11.10;99.90
14521;DHT22;7347;50.844;4.490;2022-12-20T21:29:32;11.00;99.90
14521;DHT22;7347;50.844;4.490;2022-12-20T21:31:59;11.10;99.90
14521;DHT22;7347;50.844;4.490;2022-12-20T21:34:26;11.10;99.90
14521;DHT22;7347;50.844;4.490;2022-12-20T21:36:52;11.00;99.90
14521;DHT22;7347;50.844;4.490;2022-12-20T21:39:19;11.10;99.90
14521;DHT22;7347;50.844;4.490;2022-12-20T21:41:47;11.00;99.90
14521;DHT22;7347;50.844;4.490;2022-12-20T21:44:14;11.10;99.90
14521;DHT22;7347;50.844;4.490;2022-12-20T21:46:41;11.20;99.90
14521;DHT22;7347;50.844;4.490;2022-12-20T21:49:09;11.20;99.90
14521;DHT22;7347;50.844;4.490;2022-12-20T21:51:36;11.10;99.90
14521;DHT22;7347;50.844;4.490;2022-12-20T21:54:03;11.00;99.90
14521;DHT22;7347;50.844;4.490;2022-12-20T21:56:31;11.00;99.90
14521;DHT22;7347;50.844;4.490;2022-12-20T21:59:01;11.00;99.90
14521;DHT22;7347;50.844;4.490;2022-12-20T22:01:29;10.90;99.90
14521;DHT22;7347;50.844;4.490;2022-12-20T22:03:57;10.80;99.90
14521;DHT22;7347;50.844;4.490;2022-12-20T22:06:25;10.80;99.90
14521;DHT22;7347;50.844;4.490;2022-12-20T22:08:52;10.80;99.90
14521;DHT22;7347;50.844;4.490;2022-12-20T22:11:19;10.80;99.90
14521;DHT22;7347;50.844;4.490;2022-12-20T22:13:46;10.80;99.90
14521;DHT22;7347;50.844;4.490;2022-12-20T22:16:16;10.80;99.90
